createdAt,value
2017-07-02T00:02:27.415Z,12.88
2017-07-02T00:04:55.595Z,12.82
2017-07-02T00:07:23.654Z,13.25
2017-07-02T00:09:52.538Z,14.45
2017-07-02T00:12:20.676Z,13.65
2017-07-02T00:14:48.752Z,14.23
2017-07-02T00:17:16.847Z,15.35
2017-07-02T00:19:45.044Z,15.90
2017-07-02T00:22:13.871Z,15.88
2017-07-02T00:24:42.047Z,15.65
2017-07-02T00:27:10.213Z,17.98
2017-07-02T00:29:38.285Z,17.52
2017-07-02T00:32:06.366Z,16.40
2017-07-02T00:34:34.510Z,18.60
2017-07-02T00:37:03.351Z,17.17
2017-07-02T00:39:31.435Z,21.23
2017-07-02T00:42:04.422Z,21.85
2017-07-02T00:44:32.482Z,19.98
2017-07-02T00:47:00.555Z,20.10
2017-07-02T00:49:28.651Z,21.08
2017-07-02T00:51:56.742Z,21.87
2017-07-02T00:54:25.566Z,21.95
2017-07-02T00:56:54.086Z,21.50
2017-07-02T00:59:22.141Z,21.80
2017-07-02T01:01:50.322Z,23.70
2017-07-02T01:04:18.462Z,24.55
2017-07-02T01:06:46.513Z,23.58
2017-07-02T01:09:14.605Z,25.40
2017-07-02T01:11:42.689Z,24.42
2017-07-02T01:14:11.170Z,25.90
2017-07-02T01:16:39.230Z,23.35
2017-07-02T01:19:07.336Z,25.75
2017-07-02T01:21:35.406Z,24.37
2017-07-02T01:24:03.554Z,26.48
2017-07-02T01:26:31.622Z,25.20
2017-07-02T01:28:59.758Z,25.80
2017-07-02T01:31:28.636Z,26.75
2017-07-02T01:33:56.733Z,25.00
2017-07-02T01:36:25.603Z,24.52
2017-07-02T01:38:53.667Z,27.58
2017-07-02T01:41:22.541Z,26.92
2017-07-02T01:43:50.646Z,27.35
2017-07-02T01:46:18.706Z,24.08
2017-07-02T01:48:46.775Z,25.40
2017-07-02T01:51:14.879Z,26.02
2017-07-02T01:53:43.010Z,26.65
2017-07-02T01:56:11.498Z,26.10
2017-07-02T01:58:39.709Z,24.37
2017-07-02T02:01:20.598Z,24.25
2017-07-02T02:03:48.717Z,25.48
2017-07-02T02:06:17.576Z,25.75
2017-07-02T02:08:45.733Z,27.40
2017-07-02T02:11:14.575Z,24.25
2017-07-02T02:13:42.753Z,25.55
2017-07-02T02:16:10.880Z,23.60
2017-07-02T02:18:38.995Z,24.50
2017-07-02T02:21:07.062Z,26.02
2017-07-02T02:23:35.148Z,20.55
2017-07-02T02:26:03.213Z,24.67
2017-07-02T02:28:31.314Z,23.35
2017-07-02T02:30:59.381Z,24.17
2017-07-02T02:33:27.906Z,21.87
2017-07-02T02:35:56.774Z,22.27
2017-07-02T02:38:24.850Z,22.52
2017-07-02T02:40:53.392Z,21.75
2017-07-02T02:43:21.435Z,23.67
2017-07-02T02:45:49.578Z,22.90
2017-07-02T02:48:18.051Z,21.30
2017-07-02T02:50:46.883Z,20.62
2017-07-02T02:53:15.030Z,19.55
2017-07-02T02:55:43.095Z,19.65
2017-07-02T02:58:11.228Z,19.27
2017-07-02T03:00:39.708Z,19.10
2017-07-02T03:03:07.785Z,19.55
2017-07-02T03:05:36.649Z,20.33
2017-07-02T03:08:04.714Z,18.77
2017-07-02T03:10:32.909Z,18.12
2017-07-02T03:13:01.466Z,19.02
2017-07-02T03:15:29.645Z,16.87
2017-07-02T03:17:57.711Z,17.00
2017-07-02T03:20:25.790Z,18.15
2017-07-02T03:22:53.883Z,19.55
2017-07-02T03:25:22.080Z,17.83
2017-07-02T03:27:50.093Z,19.12
2017-07-02T03:30:18.203Z,16.87
2017-07-02T03:32:46.744Z,19.02
2017-07-02T03:35:14.817Z,19.12
2017-07-02T03:37:42.907Z,17.80
2017-07-02T03:40:10.961Z,17.55
2017-07-02T03:42:39.445Z,17.87
2017-07-02T03:45:07.519Z,19.12
2017-07-02T03:47:35.614Z,16.55
2017-07-02T03:50:03.678Z,19.83
2017-07-02T03:52:31.762Z,17.80
2017-07-02T03:54:59.850Z,17.98
2017-07-02T03:57:28.319Z,16.37
2017-07-02T03:59:56.799Z,17.33
2017-07-02T04:02:24.862Z,16.23
2017-07-02T04:04:52.949Z,17.35
2017-07-02T04:07:21.020Z,17.25
2017-07-02T04:09:49.119Z,16.10
2017-07-02T04:12:17.182Z,16.62
2017-07-02T04:14:46.009Z,16.95
2017-07-02T04:17:14.093Z,15.85
2017-07-02T04:19:42.162Z,17.27
2017-07-02T04:22:10.245Z,14.93
2017-07-02T04:24:38.318Z,16.05
2017-07-02T04:27:06.415Z,16.30
2017-07-02T04:29:34.482Z,18.87
2017-07-02T04:32:02.570Z,18.73
2017-07-02T04:34:30.637Z,17.02
2017-07-02T04:36:59.525Z,17.27
2017-07-02T04:39:27.614Z,15.88
2017-07-02T04:41:56.457Z,15.45
2017-07-02T04:44:24.538Z,16.48
2017-07-02T04:46:52.605Z,16.60
2017-07-02T04:49:21.089Z,14.70
2017-07-02T04:51:49.183Z,16.65
2017-07-02T04:54:17.310Z,16.23
2017-07-02T04:56:45.427Z,17.23
2017-07-02T04:59:15.042Z,15.65
2017-07-02T05:01:43.874Z,16.00
2017-07-02T05:04:11.941Z,16.87
2017-07-02T05:06:40.031Z,15.48
2017-07-02T05:09:08.518Z,16.25
2017-07-02T05:11:37.007Z,18.12
2017-07-02T05:14:05.186Z,17.87
2017-07-02T05:16:33.348Z,18.15
2017-07-02T05:19:01.942Z,19.17
2017-07-02T05:21:30.151Z,18.20
2017-07-02T05:23:58.589Z,18.48
2017-07-02T05:26:26.651Z,18.08
2017-07-02T05:28:54.830Z,17.85
2017-07-02T05:31:23.733Z,18.45
2017-07-02T05:33:51.813Z,19.15
2017-07-02T05:36:19.882Z,19.42
2017-07-02T05:38:48.377Z,19.92
2017-07-02T05:41:16.454Z,19.85
2017-07-02T05:43:45.321Z,19.77
2017-07-02T05:46:13.433Z,18.00
2017-07-02T05:48:41.598Z,17.50
2017-07-02T05:51:09.726Z,18.20
2017-07-02T05:53:37.791Z,19.40
2017-07-02T05:56:05.915Z,16.35
2017-07-02T05:58:35.474Z,15.63
2017-07-02T06:01:03.579Z,16.40
2017-07-02T06:03:31.642Z,17.17
2017-07-02T06:05:59.726Z,15.63
2017-07-02T06:08:27.799Z,17.77
2017-07-02T06:10:55.871Z,17.15
2017-07-02T06:13:24.354Z,16.60
2017-07-02T06:15:52.418Z,14.87
2017-07-02T06:18:20.518Z,16.20
2017-07-02T06:20:49.374Z,15.68
2017-07-02T06:23:17.421Z,13.73
2017-07-02T06:25:45.512Z,14.85
2017-07-02T06:28:13.579Z,14.48
2017-07-02T06:30:41.691Z,13.77
2017-07-02T06:33:10.194Z,15.45
2017-07-02T06:35:38.366Z,13.40
2017-07-02T06:38:06.908Z,13.98
2017-07-02T06:40:34.966Z,13.70
2017-07-02T06:43:03.430Z,12.90
2017-07-02T06:45:31.933Z,14.68
2017-07-02T06:48:00.001Z,13.80
2017-07-02T06:50:28.067Z,13.85
2017-07-02T06:52:56.923Z,12.25
2017-07-02T06:55:24.989Z,13.02
2017-07-02T06:57:53.077Z,12.90
2017-07-02T07:00:21.165Z,14.65
2017-07-02T07:02:49.268Z,11.20
2017-07-02T07:05:17.331Z,10.90
2017-07-02T07:07:45.447Z,12.25
2017-07-02T07:10:13.509Z,11.90
2017-07-02T07:12:42.342Z,12.57
2017-07-02T07:15:10.441Z,12.23
2017-07-02T07:17:38.518Z,12.75
2017-07-02T07:20:07.390Z,10.93
2017-07-02T07:22:35.453Z,11.10
2017-07-02T07:25:03.971Z,11.32
2017-07-02T07:27:32.029Z,11.25
2017-07-02T07:30:00.101Z,10.82
2017-07-02T07:32:28.194Z,11.38
2017-07-02T07:34:57.774Z,11.30
2017-07-02T07:37:26.252Z,10.43
2017-07-02T07:39:54.304Z,11.95
2017-07-02T07:42:22.426Z,11.25
2017-07-02T07:44:50.456Z,9.77
2017-07-02T07:47:18.529Z,8.85
2017-07-02T07:49:46.605Z,9.82
2017-07-02T07:52:14.666Z,8.90
2017-07-02T07:54:42.772Z,9.25
2017-07-02T07:57:10.826Z,7.07
2017-07-02T07:59:38.882Z,8.68
2017-07-02T08:02:06.964Z,8.15
2017-07-02T08:04:35.037Z,10.20
2017-07-02T08:07:03.122Z,8.50
2017-07-02T08:09:31.194Z,7.15
2017-07-02T08:11:59.246Z,7.15
2017-07-02T08:14:27.335Z,6.97
2017-07-02T08:16:55.391Z,6.60
2017-07-02T08:19:23.483Z,7.87
2017-07-02T08:21:51.545Z,6.57
2017-07-02T08:24:19.634Z,6.15
2017-07-02T08:26:47.734Z,7.30
2017-07-02T08:29:15.786Z,8.25
2017-07-02T08:31:44.626Z,7.50
2017-07-02T08:34:12.682Z,8.75
2017-07-02T08:36:41.090Z,8.40
2017-07-02T08:39:09.912Z,7.10
2017-07-02T08:41:37.985Z,7.53
2017-07-02T08:44:06.041Z,7.50
2017-07-02T08:46:34.125Z,5.37
2017-07-02T08:49:02.245Z,5.65
2017-07-02T08:51:30.305Z,5.53
2017-07-02T08:53:58.753Z,6.15
2017-07-02T08:56:26.829Z,5.25
2017-07-02T08:58:54.920Z,6.47
2017-07-02T09:01:22.966Z,6.28
2017-07-02T09:03:51.813Z,5.60
2017-07-02T09:06:19.904Z,5.68
2017-07-02T09:08:48.354Z,5.43
2017-07-02T09:11:16.445Z,4.37
2017-07-02T09:13:44.520Z,5.18
2017-07-02T09:16:12.688Z,4.68
2017-07-02T09:18:40.745Z,4.28
2017-07-02T09:21:08.847Z,4.40
2017-07-02T09:23:37.039Z,5.40
2017-07-02T09:26:05.153Z,4.45
2017-07-02T09:28:33.198Z,4.45
2017-07-02T09:31:01.789Z,3.65
2017-07-02T09:33:29.839Z,5.12
2017-07-02T09:35:57.913Z,4.10
2017-07-02T09:38:25.987Z,3.65
2017-07-02T09:40:54.067Z,4.57
2017-07-02T09:43:22.127Z,3.12
2017-07-02T09:45:50.203Z,3.97
2017-07-02T09:48:18.302Z,3.55
2017-07-02T09:50:46.783Z,4.30
2017-07-02T09:53:15.602Z,3.10
2017-07-02T09:55:44.083Z,2.97
2017-07-02T09:58:12.174Z,3.30
2017-07-02T10:00:40.279Z,3.40
2017-07-02T10:03:08.481Z,2.92
2017-07-02T10:05:36.989Z,3.10
2017-07-02T10:08:05.155Z,2.92
2017-07-02T10:10:33.592Z,2.83
2017-07-02T10:13:01.647Z,3.97
2017-07-02T10:15:29.718Z,3.30
2017-07-02T10:17:57.770Z,3.30
2017-07-02T10:20:25.846Z,3.50
2017-07-02T10:22:53.894Z,3.15
2017-07-02T10:25:21.986Z,3.87
2017-07-02T10:27:50.056Z,3.42
2017-07-02T10:30:18.105Z,3.45
2017-07-02T10:32:46.578Z,3.58
2017-07-02T10:35:15.028Z,4.43
2017-07-02T10:37:43.119Z,3.45
2017-07-02T10:40:11.569Z,4.20
2017-07-02T10:42:39.646Z,3.50
2017-07-02T10:45:08.090Z,3.83
2017-07-02T10:47:36.575Z,3.35
2017-07-02T10:50:04.630Z,4.65
2017-07-02T10:52:33.082Z,4.28
2017-07-02T10:55:01.551Z,4.80
2017-07-02T10:57:29.607Z,4.40
2017-07-02T10:59:57.685Z,3.75
2017-07-02T11:02:25.737Z,3.95
2017-07-02T11:04:53.818Z,3.97
2017-07-02T11:07:21.866Z,4.95
2017-07-02T11:09:49.955Z,4.07
2017-07-02T11:12:18.056Z,4.05
2017-07-02T11:14:46.165Z,4.25
2017-07-02T11:17:14.267Z,3.65
2017-07-02T11:19:42.352Z,4.43
2017-07-02T11:22:10.405Z,3.85
2017-07-02T11:24:38.462Z,3.78
2017-07-02T11:27:06.550Z,3.35
2017-07-02T11:29:34.630Z,4.40
2017-07-02T11:32:02.686Z,4.37
2017-07-02T11:34:30.762Z,3.33
2017-07-02T11:36:58.827Z,3.53
2017-07-02T11:39:26.919Z,2.22
2017-07-02T11:41:54.982Z,2.53
2017-07-02T11:44:23.040Z,2.40
2017-07-02T11:46:51.513Z,3.37
2017-07-02T11:49:19.567Z,2.53
2017-07-02T11:51:48.036Z,1.60
2017-07-02T11:54:16.892Z,1.83
2017-07-02T11:56:44.981Z,2.50
2017-07-02T11:59:13.037Z,3.00
2017-07-02T12:01:41.093Z,2.30
2017-07-02T12:04:09.178Z,2.12
2017-07-02T12:06:37.229Z,2.25
2017-07-02T12:09:05.354Z,1.30
2017-07-02T12:11:33.810Z,1.35
2017-07-02T12:14:01.906Z,1.48
2017-07-02T12:16:29.994Z,1.30
2017-07-02T12:18:58.423Z,1.30
2017-07-02T12:21:26.536Z,1.67
2017-07-02T12:23:54.754Z,1.37
2017-07-02T12:26:23.266Z,1.00
2017-07-02T12:28:51.884Z,1.33
2017-07-02T12:31:19.933Z,1.40
2017-07-02T12:33:48.054Z,1.27
2017-07-02T12:36:16.110Z,2.10
2017-07-02T12:38:45.019Z,1.20
2017-07-02T12:41:13.578Z,1.40
2017-07-02T12:43:42.471Z,1.35
2017-07-02T12:46:10.939Z,1.20
2017-07-02T12:48:39.114Z,1.30
2017-07-02T12:51:07.170Z,1.55
2017-07-02T12:53:35.225Z,1.00
2017-07-02T12:56:03.302Z,1.20
2017-07-02T12:58:31.350Z,1.30
2017-07-02T13:00:59.435Z,1.50
2017-07-02T13:03:27.486Z,1.45
2017-07-02T13:05:55.565Z,1.30
2017-07-02T13:08:23.638Z,1.20
2017-07-02T13:10:52.187Z,1.95
2017-07-02T13:13:21.038Z,1.02
2017-07-02T13:15:49.122Z,1.60
2017-07-02T13:18:17.254Z,1.33
2017-07-02T13:20:45.345Z,1.35
2017-07-02T13:23:13.456Z,1.80
2017-07-02T13:25:41.522Z,1.33
2017-07-02T13:28:09.651Z,1.33
2017-07-02T13:30:37.733Z,1.55
2017-07-02T13:33:06.713Z,2.50
2017-07-02T13:35:34.781Z,1.70
2017-07-02T13:38:02.864Z,2.03
2017-07-02T13:40:30.958Z,1.67
2017-07-02T13:42:59.030Z,1.40
2017-07-02T13:45:27.098Z,1.48
2017-07-02T13:47:55.177Z,1.73
2017-07-02T13:50:23.326Z,1.55
2017-07-02T13:52:51.802Z,1.50
2017-07-02T13:55:19.902Z,1.48
2017-07-02T13:57:48.773Z,1.20
2017-07-02T14:00:16.895Z,1.50
2017-07-02T14:02:45.731Z,1.23
2017-07-02T14:05:13.785Z,1.85
2017-07-02T14:07:41.871Z,1.20
2017-07-02T14:12:45.257Z,1.45
2017-07-02T14:15:13.315Z,1.33
2017-07-02T14:17:41.814Z,1.55
2017-07-02T14:20:09.866Z,1.67
2017-07-02T14:22:38.425Z,1.20
2017-07-02T14:25:06.471Z,1.48
2017-07-02T14:27:34.592Z,1.10
2017-07-02T14:30:04.151Z,2.03
2017-07-02T14:32:32.212Z,1.02
2017-07-02T14:35:01.074Z,1.35
2017-07-02T14:37:30.002Z,1.30
2017-07-02T14:39:58.060Z,1.12
2017-07-02T14:42:26.134Z,1.40
2017-07-02T14:44:54.232Z,4.07
2017-07-02T14:47:22.392Z,2.00
2017-07-02T14:49:50.471Z,1.73
2017-07-02T14:52:18.582Z,1.10
2017-07-02T14:54:46.667Z,1.45
2017-07-02T14:57:15.598Z,1.30
2017-07-02T14:59:43.671Z,1.00
2017-07-02T15:02:12.156Z,1.30
2017-07-02T15:04:40.229Z,1.12
2017-07-02T15:07:08.273Z,1.20
2017-07-02T15:09:36.449Z,1.67
2017-07-02T15:12:04.614Z,1.30
2017-07-02T15:14:33.475Z,1.62
2017-07-02T15:17:01.562Z,1.60
2017-07-02T15:19:29.704Z,1.85
2017-07-02T15:21:57.762Z,1.65
2017-07-02T15:24:25.846Z,1.60
2017-07-02T15:26:53.905Z,1.70
2017-07-02T15:29:22.018Z,2.12
2017-07-02T15:31:50.840Z,1.85
2017-07-02T15:34:18.899Z,2.25
2017-07-02T15:36:47.750Z,1.80
2017-07-02T15:39:15.799Z,2.15
2017-07-02T15:41:43.871Z,1.60
2017-07-02T15:44:11.999Z,2.22
2017-07-02T15:46:40.819Z,2.62
2017-07-02T15:49:08.926Z,2.75
2017-07-02T15:51:36.999Z,2.55
2017-07-02T15:54:05.099Z,2.95
2017-07-02T15:56:33.549Z,2.72
2017-07-02T15:59:01.625Z,3.10
2017-07-02T16:01:29.682Z,2.53
2017-07-02T16:03:57.765Z,2.95
2017-07-02T16:06:26.204Z,2.30
2017-07-02T16:08:54.297Z,3.10
2017-07-02T16:11:22.353Z,2.53
2017-07-02T16:13:50.442Z,3.20
2017-07-02T16:16:18.981Z,2.30
2017-07-02T16:18:47.916Z,2.80
2017-07-02T16:21:16.083Z,2.50
2017-07-02T16:23:44.142Z,2.83
2017-07-02T16:26:12.243Z,2.20
2017-07-02T16:28:40.518Z,2.60
2017-07-02T16:31:08.597Z,2.78
2017-07-02T16:33:36.687Z,2.17
2017-07-02T16:36:04.779Z,2.30
2017-07-02T16:38:33.709Z,2.70
2017-07-02T16:41:01.837Z,2.97
2017-07-02T16:43:29.956Z,2.58
2017-07-02T16:45:58.015Z,2.90
2017-07-02T16:48:26.135Z,2.62
2017-07-02T16:50:54.280Z,2.20
2017-07-02T16:53:22.336Z,2.47
2017-07-02T16:55:50.460Z,2.35
2017-07-02T16:58:18.918Z,1.80
2017-07-02T17:00:47.052Z,2.55
2017-07-02T17:03:15.571Z,2.58
2017-07-02T17:05:43.630Z,2.37
2017-07-02T17:08:11.835Z,2.33
2017-07-02T17:10:39.930Z,1.73
2017-07-02T17:13:08.059Z,2.20
2017-07-02T17:15:36.146Z,2.00
2017-07-02T17:18:04.283Z,1.85
2017-07-02T17:20:33.121Z,1.67
2017-07-02T17:23:01.589Z,1.80
2017-07-02T17:25:29.661Z,1.95
2017-07-02T17:27:57.909Z,1.90
2017-07-02T17:30:26.002Z,2.70
2017-07-02T17:32:54.190Z,2.00
2017-07-02T17:35:22.343Z,2.28
2017-07-02T17:37:50.571Z,1.87
2017-07-02T17:40:19.387Z,1.95
2017-07-02T17:42:47.470Z,1.85
2017-07-02T17:45:15.659Z,2.00
2017-07-02T17:47:43.766Z,1.65
2017-07-02T17:50:12.253Z,2.62
2017-07-02T17:52:41.187Z,2.50
2017-07-02T17:55:09.318Z,6.90
2017-07-02T17:57:37.477Z,21.08
2017-07-02T18:00:05.644Z,2.08
2017-07-02T18:02:33.745Z,3.15
2017-07-02T18:05:02.688Z,3.83
2017-07-02T18:07:30.788Z,2.22
2017-07-02T18:09:59.087Z,2.17
2017-07-02T18:12:27.245Z,2.05
2017-07-02T18:14:55.370Z,2.50
2017-07-02T18:17:23.535Z,26.75
2017-07-02T18:19:51.690Z,41.40
2017-07-02T18:22:20.562Z,5.85
2017-07-02T18:24:49.082Z,2.25
2017-07-02T18:27:17.680Z,2.70
2017-07-02T18:29:45.800Z,13.62
2017-07-02T18:32:13.973Z,2.83
2017-07-02T18:34:42.146Z,2.45
2017-07-02T18:37:10.261Z,2.70
2017-07-02T18:39:38.850Z,2.25
2017-07-02T18:42:07.710Z,3.85
2017-07-02T18:47:11.218Z,3.92
2017-07-02T18:49:39.325Z,1.95
2017-07-02T18:52:07.450Z,2.70
2017-07-02T18:54:35.665Z,2.53
2017-07-02T18:57:04.483Z,3.17
2017-07-02T18:59:32.629Z,2.40
2017-07-02T19:02:00.685Z,2.85
2017-07-02T19:04:29.534Z,2.60
2017-07-02T19:06:57.705Z,2.72
2017-07-02T19:09:26.275Z,2.65
2017-07-02T19:11:55.127Z,2.60
2017-07-02T19:14:24.066Z,2.45
2017-07-02T19:16:52.131Z,2.92
2017-07-02T19:19:20.193Z,2.20
2017-07-02T19:21:48.681Z,2.33
2017-07-02T19:24:16.776Z,2.37
2017-07-02T19:26:44.856Z,2.65
2017-07-02T19:29:12.973Z,2.33
2017-07-02T19:31:41.820Z,3.12
2017-07-02T19:34:10.333Z,2.70
2017-07-02T19:36:38.534Z,2.80
2017-07-02T19:39:07.385Z,2.75
2017-07-02T19:41:36.257Z,2.20
2017-07-02T19:44:04.744Z,2.75
2017-07-02T19:46:32.910Z,2.20
2017-07-02T19:49:01.151Z,2.80
2017-07-02T19:51:29.310Z,2.60
2017-07-02T19:53:57.525Z,2.25
2017-07-02T19:56:25.767Z,2.95
2017-07-02T19:58:53.897Z,2.53
2017-07-02T20:01:22.054Z,2.40
2017-07-02T20:03:50.158Z,2.15
2017-07-02T20:06:19.067Z,2.33
2017-07-02T20:08:47.584Z,1.98
2017-07-02T20:11:15.662Z,2.28
2017-07-02T20:13:43.796Z,1.92
2017-07-02T20:16:11.887Z,2.00
2017-07-02T20:18:40.107Z,2.08
2017-07-02T20:21:08.294Z,2.10
2017-07-02T20:23:37.194Z,2.55
2017-07-02T20:26:06.144Z,1.85
2017-07-02T20:28:34.201Z,1.90
2017-07-02T20:31:02.313Z,1.70
2017-07-02T20:33:30.454Z,1.70
2017-07-02T20:35:58.702Z,1.45
2017-07-02T20:38:26.868Z,1.60
2017-07-02T20:40:55.289Z,1.87
2017-07-02T20:43:23.746Z,2.33
2017-07-02T20:45:51.851Z,1.77
2017-07-02T20:48:19.890Z,2.08
2017-07-02T20:50:47.977Z,2.12
2017-07-02T20:53:16.123Z,1.90
2017-07-02T20:55:45.062Z,2.30
2017-07-02T20:58:13.116Z,2.30
2017-07-02T21:00:41.198Z,1.65
2017-07-02T21:03:09.287Z,1.87
2017-07-02T21:05:37.363Z,1.92
2017-07-02T21:08:05.518Z,1.55
2017-07-02T21:10:33.574Z,1.83
2017-07-02T21:13:01.650Z,2.10
2017-07-02T21:15:29.813Z,1.90
2017-07-02T21:17:59.826Z,1.90
2017-07-02T21:20:27.910Z,2.65
2017-07-02T21:22:55.976Z,2.00
2017-07-02T21:25:24.297Z,2.08
2017-07-02T21:27:53.128Z,2.20
2017-07-02T21:30:21.177Z,2.08
2017-07-02T21:32:50.102Z,2.20
2017-07-02T21:35:18.211Z,2.25
2017-07-02T21:37:46.334Z,2.40
2017-07-02T21:40:14.423Z,2.33
2017-07-02T21:42:42.481Z,2.10
2017-07-02T21:45:10.590Z,2.15
2017-07-02T21:47:38.677Z,2.33
2017-07-02T21:50:06.816Z,2.10
2017-07-02T21:52:34.921Z,1.92
2017-07-02T21:55:02.977Z,2.30
2017-07-02T21:57:31.091Z,1.85
2017-07-02T21:59:59.190Z,2.35
2017-07-02T22:02:27.330Z,2.47
2017-07-02T22:04:56.149Z,2.20
2017-07-02T22:07:24.266Z,1.90
2017-07-02T22:09:52.409Z,2.10
2017-07-02T22:12:20.510Z,1.70
2017-07-02T22:14:48.603Z,2.47
2017-07-02T22:17:16.670Z,2.10
2017-07-02T22:19:44.776Z,2.10
2017-07-02T22:22:13.668Z,2.30
2017-07-02T22:24:41.710Z,2.22
2017-07-02T22:27:10.558Z,2.22
2017-07-02T22:29:38.630Z,2.00
2017-07-02T22:32:06.695Z,2.60
2017-07-02T22:34:34.786Z,2.70
2017-07-02T22:37:02.855Z,2.58
2017-07-02T22:39:30.999Z,2.30
2017-07-02T22:41:59.123Z,2.60
2017-07-02T22:44:27.260Z,2.78
2017-07-02T22:46:55.378Z,2.55
2017-07-02T22:49:23.529Z,2.40
2017-07-02T22:51:51.676Z,3.00
2017-07-02T22:54:19.722Z,2.20
2017-07-02T22:56:47.857Z,2.50
2017-07-02T22:59:16.078Z,2.58
2017-07-02T23:01:44.133Z,2.83
2017-07-02T23:04:13.065Z,3.25
2017-07-02T23:06:41.123Z,3.00
2017-07-02T23:09:09.199Z,2.70
2017-07-02T23:11:37.279Z,2.62
2017-07-02T23:14:05.334Z,3.50
2017-07-02T23:16:33.418Z,2.65
2017-07-02T23:19:01.491Z,3.05
2017-07-02T23:21:29.562Z,2.85
2017-07-02T23:23:57.643Z,2.87
2017-07-02T23:26:25.696Z,3.03
2017-07-02T23:28:53.807Z,2.90
2017-07-02T23:31:21.962Z,2.42
2017-07-02T23:33:50.135Z,2.90
2017-07-02T23:36:18.201Z,2.92
2017-07-02T23:38:46.375Z,2.70
2017-07-02T23:41:14.457Z,2.90
2017-07-02T23:43:42.623Z,3.62
2017-07-02T23:46:10.699Z,4.30
2017-07-02T23:48:38.865Z,2.83
2017-07-02T23:51:07.040Z,3.28
2017-07-02T23:53:35.105Z,3.53
2017-07-02T23:56:03.618Z,3.67
2017-07-02T23:58:31.687Z,3.78
